AirNav   Air Wisconsin Up To $57,000 Bonus
 
 1625 users online  

AK22 Lakloey Air Park
Fairbanks, Alaska, USA

GOING TO FAIRBANKS?


FAA INFORMATION EFFECTIVE 15 AUGUST 2019

Location

FAA Identifier: AK22
Lat/Long: 64-49-18.0000N 147-31-18.0000W
64-49.300000N 147-31.300000W
64.8216667,-147.5216667
(estimated)
Elevation: 475 ft. / 145 m (estimated)
Variation: 27E (1995)
From city: 6 miles E of FAIRBANKS, AK
Time zone: UTC -8 (UTC -9 during Standard Time)
Zip code: 99705

Airport Operations

Airport use: Private use. Permission required prior to landing
Activation date: 02/2000
Control tower: no
ARTCC: ANCHORAGE CENTER
FSS: FAIRBANKS FLIGHT SERVICE STATION [907-474-0788]
Attendance: UNATNDD
Wind indicator: yes
Segmented circle: no

Airport Communications

CTAF: 125.0

Nearby radio navigation aids

VOR radial/distance  VOR name  Freq  Var
FAIr063/12.6FAIRBANKS VORTAC108.6021E

 
NDB name  Hdg/Dist  Freq  Var  ID
CHENA197/1.225717ECUN -.-. ..- -.

Airport Services

Runway Information

Runway 6/24

Dimensions: 4000 x 50 ft. / 1219 x 15 m
Surface: gravel
RUNWAY 6  RUNWAY 24
Traffic pattern: rightleft
Obstructions: 40 ft. trees, 100 ft. from runway, 3:1 slope to clearnone

Runway 6W/24W

Dimensions: 3400 x 100 ft. / 1036 x 30 m
Surface: water
RUNWAY 6W  RUNWAY 24W
Traffic pattern: rightleft
Obstructions: 40 ft. trees, 100 ft. from runway, 3:1 slope to clearnone

Airport Ownership and Management from official FAA records

Ownership: Privately-owned
Owner: LAKLOEY AIR PARK, INC
PO BOX 58388
FAIRBANKS, AK 99711
Phone 907-456-1566
Manager: RICK SCHIKORA
PO BOX 58388
FAIRBANKS, AK 99711
Phone 907-488-1724

Airport Operational Statistics

Aircraft based on the field: 28
Single engine airplanes: 28
    

Additional Remarks

RYS NOT MAINTAINED OR MONITORED, RECOMMEND VISUAL INSPECTION PRIOR TO USING. NO FACILITIES.UNUSABLE FOR WHEELS IN THE FALL/WINTER/SPRING.
SUAIS - 125.3 (1-800-758-8723) - WITHIN LADD ARMY AIRFIELD AIRSPACE. CONTACT LADD TOWER 125.0 WHEN LADD TOWER IS CLSD USE 125.0 AS CTAF.
PPR FOR TRANSIENT ACFT, WRITE TO LAKLOEY AIRPARK, PO BOX 58388, FAIRBANKS, AK 99711.
WATERWAYS NOT MAINTAINED OR MONITORED, RECOMMEND VISUAL INSPECTION PRIOR TO USING. UNUSBL IN THE FALL, WINTER, AND SPRING. NO FACILITIES.

Instrument Procedures

There are no published instrument procedures at AK22.

Some nearby airports with instrument procedures:

PAFB - Ladd Army Airfield (3 nm W)
PAFA - Fairbanks International Airport (9 nm W)
PAEI - Eielson Air Force Base (14 nm SE)
PANN - Nenana Municipal Airport (43 nm W)
PABI - Allen Army Airfield (68 nm SE)
 
Loc | Ops | Rwys | IFR | FBO | Links
Com | Nav | Svcs | Stats | Notes

Crowley
 
Area around AK22 (Lakloey Air Park)
 
Road maps at: MapQuest Bing Google
 
Aerial photo
No photo
 
Sectional chart

 
Airport distance calculator
Flying to Lakloey Air Park? Find the distance to fly.

From to AK22

Sunrise and sunset
Times for 19-Aug-2019
 Local
(UTC-8)
 Zulu
(UTC)
Morning civil twilight04:4712:47
Sunrise05:5113:51
Sunset21:5605:56
Evening civil twilight23:0007:00

Current date and time
Zulu (UTC)  19-Aug-2019 19:31:01
Local (UTC-8)  19-Aug-2019 11:31:01
 
METAR
PAFB 
3nm W 
191858Z AUTO 00000KT 10SM CLR 11/01 A3006 RMK AO2 SLP183 T01080010
PAFA 
9nm W 
191853Z 00000KT 10SM FEW080 FEW200 11/01 A3006 RMK AO2 SLP184 T01060011
PAEI 
14nm SE 
191856Z 00000KT 10SM CLR 10/03 A3005 RMK AO2A SLP182 T01000028 $
TAF
PAFB 
3nm W 
191500Z 1915/2021 VRB06KT 9999 SCT065 QNH3005INS BECMG 1920/1921 09012KT 9999 SCT065 QNH3002INS BECMG 1922/1923 09012KT 9999 BKN060 620603 QNH2995INS BECMG 2003/2004 05006KT 9999 BKN070 620702 QNH2972INS TX14/2000Z TN04/1915Z
PAFA 
9nm W 
191722Z 1918/2024 VRB03KT P6SM SCT200
PAEI 
14nm SE 
191200Z 1912/2018 VRB06KT 9999 FEW100 QNH3007INS BECMG 1917/1918 09009KT 9999 SCT080 QNH2999INS BECMG 1923/1924 08006KT 9999 BKN060 620602 QNH2981INS TX14/2000Z TN01/1915Z
NOTAMs
Click for the latest NOTAMs
NOTAMs are issued by the DoD/FAA and will open in a separate window not controlled by AirNav.

 

 
 

Would you like to see your business listed on this page?

 If your business provides an interesting product or service to pilots, flight crews, aircraft, or users of the Lakloey Air Park, you should consider listing it here.  To start the listing process, click on the button below
 
Add a business
 

Other Pages about Lakloey Air Park

Update a link
 
Copyright © AirNav, LLC. All rights reserved. Privacy Policy  Contact